Time;durP1;ratioP1;P1;durP2;ratioP2;P2;SDS_P1;SDS_P2;PMS_P1;PMS_P2;Temp;Humidity;BMP_temperature;BMP_pressure;BME280_temperature;BME280_humidity;BME280_pressure;Samples;Min_cycle;Max_cycle;Signal;HPM_P1;HPM_P2
2023/03/14 00:02:15;;;;;;;;;;;;;;;12.55;78.38;100186.81;4895116;29;19931;-78
2023/03/14 00:04:43;;;;;;;;;;;;;;;12.57;78.59;100190.88;4897007;29;19934;-78
2023/03/14 00:07:11;;;;;;;;;;;;;;;12.67;78.05;100200.88;4897136;29;20306;-78
2023/03/14 00:09:40;;;;;;;;;;;;;;;12.75;77.68;100188.34;4896871;29;19923;-78
2023/03/14 00:12:09;;;;;;;;;;;;;;;12.81;77.49;100173.41;4879928;29;19930;-78
2023/03/14 00:14:36;;;;;;;;;;;;;;;12.89;76.65;100180.97;4896829;29;19931;-78
2023/03/14 00:17:04;;;;;;;;;;;;;;;13.06;75.67;100179.53;4897071;29;20374;-78
2023/03/14 00:19:32;;;;;;;;;;;;;;;12.84;76.93;100177.47;4896776;29;19924;-78
2023/03/14 00:21:59;;;;;;;;;;;;;;;12.51;77.90;100178.38;4895294;29;19931;-78
2023/03/14 00:24:27;;;;;;;;;;;;;;;12.55;77.79;100171.16;4896992;29;20306;-78
2023/03/14 00:26:55;;;;;;;;;;;;;;;12.69;77.33;100156.63;4896511;29;20376;-78
2023/03/14 00:29:23;;;;;;;;;;;;;;;12.50;78.42;100155.63;4879328;29;19924;-77
2023/03/14 00:31:50;;;;;;;;;;;;;;;12.53;78.22;100162.44;4895353;29;19931;-78
2023/03/14 00:34:18;;;;;;;;;;;;;;;12.70;77.85;100131.63;4898499;29;19924;-78
2023/03/14 00:36:46;;;;;;;;;;;;;;;12.70;77.25;100130.84;4900172;29;19939;-78
2023/03/14 00:39:13;;;;;;;;;;;;;;;12.84;77.35;100131.63;4899015;29;20382;-78
2023/03/14 00:41:41;;;;;;;;;;;;;;;12.87;77.21;100116.47;4899984;29;19931;-78
2023/03/14 00:44:09;;;;;;;;;;;;;;;12.82;76.17;100098.19;4900189;29;20393;-78
2023/03/14 00:46:36;;;;;;;;;;;;;;;12.97;76.37;100082.47;4900123;29;19927;-78
2023/03/14 00:49:07;;;;;;;;;;;;;;;12.94;75.45;100074.88;4882931;29;20378;-78
2023/03/14 00:51:34;;;;;;;;;;;;;;;12.97;75.93;100068.75;4899815;29;19923;-78
2023/03/14 00:54:02;;;;;;;;;;;;;;;13.02;75.41;100063.13;4883109;29;19923;-78
2023/03/14 00:56:30;;;;;;;;;;;;;;;13.20;74.76;100052.31;4883065;29;19924;-79
2023/03/14 00:58:58;;;;;;;;;;;;;;;13.02;75.26;100050.19;4883184;29;19939;-78
2023/03/14 01:01:26;;;;;;;;;;;;;;;13.03;75.35;100062.84;4882868;29;19923;-78
2023/03/14 01:03:54;;;;;;;;;;;;;;;12.83;76.67;100038.56;4882990;29;19923;-78
2023/03/14 01:06:24;;;;;;;;;;;;;;;12.93;75.90;100034.78;4899882;29;19934;-78
2023/03/14 01:08:52;;;;;;;;;;;;;;;12.83;76.57;100030.31;4882982;29;19923;-77
2023/03/14 01:11:25;;;;;;;;;;;;;;;12.89;76.43;100024.41;4882536;29;19927;-78
2023/03/14 01:13:52;;;;;;;;;;;;;;;12.86;76.57;100035.22;4879437;29;19924;-79
2023/03/14 01:16:21;;;;;;;;;;;;;;;12.99;75.71;100047.25;4887080;29;19923;-78
2023/03/14 01:18:49;;;;;;;;;;;;;;;13.17;75.25;100037.25;4882849;29;19928;-78
2023/03/14 01:21:18;;;;;;;;;;;;;;;13.13;75.37;100031.56;4899456;29;19938;-78
2023/03/14 01:23:45;;;;;;;;;;;;;;;13.20;75.05;100038.56;4898435;29;20398;-78
2023/03/14 01:26:15;;;;;;;;;;;;;;;13.31;74.37;100017.97;4882551;29;19930;-78
2023/03/14 01:28:43;;;;;;;;;;;;;;;12.80;75.83;100001.56;4899369;29;19927;-78
2023/03/14 01:31:11;;;;;;;;;;;;;;;12.85;74.68;99993.19;4898084;29;19928;-78
2023/03/14 01:33:39;;;;;;;;;;;;;;;12.82;74.97;99999.34;4897713;29;19930;-78
2023/03/14 01:36:09;;;;;;;;;;;;;;;12.80;74.86;99998.81;4897980;29;19934;-78
2023/03/14 01:38:38;;;;;;;;;;;;;;;12.71;74.61;99982.25;4882787;29;19934;-78
2023/03/14 01:41:13;;;;;;;;;;;;;;;12.82;74.22;99976.53;4882166;29;19930;-78
2023/03/14 01:43:42;;;;;;;;;;;;;;;12.62;74.71;99964.91;4882364;29;19930;-78
2023/03/14 01:46:10;;;;;;;;;;;;;;;12.68;74.48;99973.81;4881371;29;19924;-78
2023/03/14 01:48:45;;;;;;;;;;;;;;;12.71;74.07;99967.72;4897909;29;19927;-78
2023/03/14 01:51:16;;;;;;;;;;;;;;;12.70;74.07;99953.19;4881874;29;20279;-78
2023/03/14 01:53:44;;;;;;;;;;;;;;;12.72;73.54;99952.88;4882029;29;20294;-79
2023/03/14 01:56:13;;;;;;;;;;;;;;;12.76;73.58;99940.16;4882139;29;19923;-78
2023/03/14 01:58:44;;;;;;;;;;;;;;;12.77;73.28;99928.06;4882055;29;19928;-78
2023/03/14 02:01:11;;;;;;;;;;;;;;;12.73;73.19;99927.03;4882023;29;19927;-78
2023/03/14 02:03:45;;;;;;;;;;;;;;;12.82;72.69;99919.69;4881394;29;19934;-78
2023/03/14 02:06:14;;;;;;;;;;;;;;;12.80;73.21;99913.69;4879381;29;19928;-78
2023/03/14 02:08:43;;;;;;;;;;;;;;;12.80;73.48;99910.94;4881934;29;19924;-78
2023/03/14 02:11:16;;;;;;;;;;;;;;;12.54;73.89;99891.53;4881903;29;19934;-78
2023/03/14 02:14:03;;;;;;;;;;;;;;;12.62;73.42;99877.06;4898461;29;20405;-78
2023/03/14 02:16:56;;;;;;;;;;;;;;;12.82;73.14;99883.19;4873127;29;20299;-78
2023/03/14 02:19:50;;;;;;;;;;;;;;;12.93;72.79;99890.03;4878605;29;19924;-78
2023/03/14 02:22:45;;;;;;;;;;;;;;;13.01;72.21;99885.75;4878569;29;19928;-79
2023/03/14 02:25:16;;;;;;;;;;;;;;;13.04;72.33;99898.84;4878544;29;19931;-78
2023/03/14 02:27:45;;;;;;;;;;;;;;;12.90;72.60;99883.25;4879628;29;19923;-78
2023/03/14 02:30:18;;;;;;;;;;;;;;;12.88;72.87;99869.03;4880046;29;19934;-78
2023/03/14 02:32:47;;;;;;;;;;;;;;;13.02;71.81;99868.13;4878267;29;20364;-78
2023/03/14 02:35:18;;;;;;;;;;;;;;;12.88;72.50;99874.50;4879433;29;19924;-78
2023/03/14 02:37:48;;;;;;;;;;;;;;;12.95;71.82;99857.59;4879436;29;19931;-78
2023/03/14 02:40:17;;;;;;;;;;;;;;;12.95;72.11;99852.09;4881361;29;20307;-78
2023/03/14 02:42:46;;;;;;;;;;;;;;;13.01;71.39;99858.28;4881424;29;20290;-78
2023/03/14 02:45:13;;;;;;;;;;;;;;;13.04;70.95;99863.13;4897965;29;19950;-78
2023/03/14 02:47:46;;;;;;;;;;;;;;;13.09;70.83;99879.47;4881210;29;19924;-78
2023/03/14 02:50:15;;;;;;;;;;;;;;;13.04;70.43;99850.22;4897508;29;19923;-79
2023/03/14 02:52:43;;;;;;;;;;;;;;;13.20;69.93;99852.53;4881147;29;20405;-78
2023/03/14 02:55:11;;;;;;;;;;;;;;;13.01;70.44;99866.50;4881267;29;19927;-78
2023/03/14 02:57:41;;;;;;;;;;;;;;;13.08;69.97;99855.88;4880721;29;19934;-80
2023/03/14 03:00:09;;;;;;;;;;;;;;;13.13;70.20;99832.97;4897494;29;19938;-79
2023/03/14 03:02:38;;;;;;;;;;;;;;;12.80;71.04;99847.78;4896458;29;20298;-78
2023/03/14 03:05:06;;;;;;;;;;;;;;;13.02;70.02;99866.19;4895709;29;19923;-78
2023/03/14 03:07:33;;;;;;;;;;;;;;;13.21;69.89;99845.13;4897644;29;19930;-78
2023/03/14 03:10:01;;;;;;;;;;;;;;;13.06;69.78;99836.19;4897417;29;19923;-78
2023/03/14 03:12:29;;;;;;;;;;;;;;;13.09;69.48;99823.75;4897206;29;19923;-78
2023/03/14 03:14:56;;;;;;;;;;;;;;;13.17;69.03;99832.03;4880875;29;19930;-78
2023/03/14 03:17:24;;;;;;;;;;;;;;;13.23;69.21;99834.63;4897468;29;19931;-78
2023/03/14 03:19:52;;;;;;;;;;;;;;;13.11;69.01;99843.47;4880549;29;19930;-78
2023/03/14 03:22:19;;;;;;;;;;;;;;;12.97;69.64;99838.03;4897145;29;19927;-77
2023/03/14 03:24:48;;;;;;;;;;;;;;;12.93;68.92;99820.56;4897483;29;19931;-78
2023/03/14 03:27:16;;;;;;;;;;;;;;;13.22;68.02;99809.09;4865527;29;19924;-77
2023/03/14 03:29:44;;;;;;;;;;;;;;;12.99;68.57;99802.84;4880443;29;20305;-77
2023/03/14 03:32:12;;;;;;;;;;;;;;;13.02;68.24;99761.81;4880437;29;19930;-77
2023/03/14 03:34:39;;;;;;;;;;;;;;;12.97;68.63;99736.44;4880877;29;19931;-78
2023/03/14 03:37:07;;;;;;;;;;;;;;;12.91;69.16;99724.78;4880582;29;19923;-78
2023/03/14 03:39:39;;;;;;;;;;;;;;;12.92;68.76;99736.56;4880620;29;19934;-79
2023/03/14 03:42:07;;;;;;;;;;;;;;;12.93;68.67;99725.28;4880323;29;19928;-78
2023/03/14 03:44:34;;;;;;;;;;;;;;;12.87;68.98;99732.84;4880618;29;19927;-78
2023/03/14 03:47:02;;;;;;;;;;;;;;;12.89;68.47;99733.34;4877174;29;19935;-78
2023/03/14 03:49:30;;;;;;;;;;;;;;;12.85;68.42;99717.81;4861838;29;19932;-77
2023/03/14 03:51:59;;;;;;;;;;;;;;;12.93;68.68;99729.94;4878728;29;19923;-78
2023/03/14 03:54:28;;;;;;;;;;;;;;;12.99;68.58;99735.00;4880430;29;20398;-78
2023/03/14 03:56:56;;;;;;;;;;;;;;;13.21;68.22;99727.81;4895598;29;20294;-78
2023/03/14 03:59:24;;;;;;;;;;;;;;;13.22;68.27;99723.09;4897077;29;19924;-79
2023/03/14 04:01:51;;;;;;;;;;;;;;;13.16;68.17;99736.97;4877096;29;20371;-78
2023/03/14 04:04:19;;;;;;;;;;;;;;;13.24;67.97;99718.91;4877330;29;19931;-78
2023/03/14 04:06:47;;;;;;;;;;;;;;;13.11;68.73;99704.16;4878515;29;19923;-78
2023/03/14 04:09:15;;;;;;;;;;;;;;;13.12;68.97;99724.22;4879995;29;19924;-78
2023/03/14 04:11:46;;;;;;;;;;;;;;;13.26;68.98;99710.34;4880095;29;19923;-78
2023/03/14 04:14:16;;;;;;;;;;;;;;;13.23;69.33;99708.22;4900878;29;20271;-78
2023/03/14 04:16:44;;;;;;;;;;;;;;;13.13;68.81;99696.44;4883890;29;19923;-78
2023/03/14 04:19:15;;;;;;;;;;;;;;;13.10;69.11;99677.03;4883904;29;19930;-79
2023/03/14 04:21:44;;;;;;;;;;;;;;;12.84;69.76;99677.75;4883152;29;20290;-78
2023/03/14 04:24:13;;;;;;;;;;;;;;;13.01;69.58;99688.78;4900457;29;20371;-77
2023/03/14 04:26:42;;;;;;;;;;;;;;;13.11;69.30;99668.44;4883731;29;20286;-77
2023/03/14 04:29:13;;;;;;;;;;;;;;;13.08;69.28;99649.88;4900286;29;19923;-78
2023/03/14 04:31:43;;;;;;;;;;;;;;;12.92;70.23;99652.28;4900315;29;19931;-78
2023/03/14 04:34:11;;;;;;;;;;;;;;;12.94;69.73;99668.44;4900364;29;19931;-78
2023/03/14 04:36:45;;;;;;;;;;;;;;;12.99;69.85;99655.34;4880230;29;20025;-78
2023/03/14 04:39:18;;;;;;;;;;;;;;;13.10;69.63;99650.34;4880444;29;19934;-79
2023/03/14 04:41:53;;;;;;;;;;;;;;;12.90;70.03;99652.56;4894857;29;20291;-77
2023/03/14 04:44:22;;;;;;;;;;;;;;;13.07;69.61;99648.28;4900273;29;19927;-79
2023/03/14 04:46:52;;;;;;;;;;;;;;;13.08;69.58;99636.16;4876313;29;19927;-80
2023/03/14 04:49:21;;;;;;;;;;;;;;;13.08;69.60;99635.31;4879994;29;19932;-78
2023/03/14 04:51:50;;;;;;;;;;;;;;;12.95;70.31;99624.16;4880073;29;20372;-78
2023/03/14 04:54:19;;;;;;;;;;;;;;;13.06;70.38;99632.09;4864470;29;19924;-77
2023/03/14 04:56:51;;;;;;;;;;;;;;;13.06;70.06;99619.19;4880063;29;19928;-78
2023/03/14 04:59:19;;;;;;;;;;;;;;;13.16;69.93;99616.13;4879972;29;20306;-78
2023/03/14 05:01:49;;;;;;;;;;;;;;;13.10;70.05;99591.88;4864237;29;20302;-79
2023/03/14 05:04:35;;;;;;;;;;;;;;;13.20;68.63;99599.00;4880977;29;19927;-78
2023/03/14 05:07:15;;;;;;;;;;;;;;;13.00;69.56;99584.78;4879907;29;20504;-79
2023/03/14 05:09:57;;;;;;;;;;;;;;;13.15;68.70;99598.03;4879619;29;19946;-77
2023/03/14 05:12:54;;;;;;;;;;;;;;;13.07;69.46;99584.28;4848571;29;19932;-77
2023/03/14 05:15:40;;;;;;;;;;;;;;;13.04;69.57;99567.31;4899835;29;19923;-77
2023/03/14 05:18:42;;;;;;;;;;;;;;;12.98;70.25;99560.38;4882774;29;19931;-78
2023/03/14 05:21:28;;;;;;;;;;;;;;;12.95;71.24;99562.94;4899602;29;19931;-77
2023/03/14 05:24:16;;;;;;;;;;;;;;;13.05;70.57;99568.09;4853839;29;19923;-77
2023/03/14 05:27:13;;;;;;;;;;;;;;;12.88;71.13;99550.50;4890729;29;19924;-77
2023/03/14 05:29:48;;;;;;;;;;;;;;;12.83;71.32;99552.59;4899448;29;20310;-79
2023/03/14 05:32:36;;;;;;;;;;;;;;;12.84;71.31;99548.69;4899018;29;19924;-77
2023/03/14 05:35:35;;;;;;;;;;;;;;;12.97;71.13;99546.94;4877884;29;19923;-77
2023/03/14 05:38:26;;;;;;;;;;;;;;;12.85;72.19;99526.44;4880098;29;19927;-77
2023/03/14 05:41:05;;;;;;;;;;;;;;;13.06;71.93;99525.00;4882436;29;19924;-77
2023/03/14 05:43:41;;;;;;;;;;;;;;;12.83;73.25;99542.41;4882558;29;20390;-76
2023/03/14 05:46:32;;;;;;;;;;;;;;;12.81;73.59;99583.09;4880541;29;19924;-77
2023/03/14 05:49:18;;;;;;;;;;;;;;;13.01;73.25;99613.84;4899046;29;19923;-77
2023/03/14 05:51:57;;;;;;;;;;;;;;;13.03;73.26;99617.88;4882315;29;19923;-78
2023/03/14 05:54:44;;;;;;;;;;;;;;;13.02;76.94;99637.44;4890587;29;19923;-78
2023/03/14 05:57:30;;;;;;;;;;;;;;;12.99;80.76;99662.78;4897929;29;19923;-79
2023/03/14 06:00:23;;;;;;;;;;;;;;;13.06;82.80;99657.66;4878648;29;20429;-80
2023/03/14 06:03:12;;;;;;;;;;;;;;;12.80;85.66;99658.34;4863527;29;19924;-80
2023/03/14 06:05:44;;;;;;;;;;;;;;;12.46;87.56;99679.06;4895699;29;19924;-79
2023/03/14 06:08:12;;;;;;;;;;;;;;;12.80;89.11;99679.53;4881022;29;19930;-81
2023/03/14 06:10:43;;;;;;;;;;;;;;;12.98;88.94;99678.44;4880296;29;19931;-80
2023/03/14 06:13:10;;;;;;;;;;;;;;;12.89;91.49;99670.19;4880199;29;19923;-79
2023/03/14 06:15:38;;;;;;;;;;;;;;;12.56;90.87;99676.03;4896332;29;19930;-79
2023/03/14 06:18:06;;;;;;;;;;;;;;;12.47;92.61;99665.00;4897624;29;19923;-80
2023/03/14 06:20:41;;;;;;;;;;;;;;;12.27;95.98;99646.34;4879897;29;19932;-80
2023/03/14 06:23:11;;;;;;;;;;;;;;;12.07;98.13;99632.84;4886585;29;20391;-79
2023/03/14 06:25:39;;;;;;;;;;;;;;;12.13;97.67;99628.03;4897301;29;19930;-77
2023/03/14 06:28:07;;;;;;;;;;;;;;;11.98;97.30;99633.88;4890462;29;19924;-78
2023/03/14 06:30:35;;;;;;;;;;;;;;;11.74;99.96;99624.88;4879582;29;19942;-77
2023/03/14 06:33:03;;;;;;;;;;;;;;;11.79;100.00;99621.97;4877125;29;20371;-77
2023/03/14 06:35:31;;;;;;;;;;;;;;;11.90;100.00;99624.47;4876807;29;19927;-78
2023/03/14 06:37:59;;;;;;;;;;;;;;;11.75;100.00;99623.72;4895290;29;19923;-77
2023/03/14 06:40:30;;;;;;;;;;;;;;;11.80;100.00;99639.25;4892904;29;19927;-78
2023/03/14 06:43:08;;;;;;;;;;;;;;;11.72;100.00;99638.03;4877821;29;19924;-76
2023/03/14 06:45:37;;;;;;;;;;;;;;;11.88;100.00;99630.25;4876937;29;19935;-76
2023/03/14 06:48:06;;;;;;;;;;;;;;;12.04;100.00;99632.66;4876903;29;19923;-76
2023/03/14 06:50:50;;;;;;;;;;;;;;;11.95;100.00;99649.84;4874953;29;19924;-76
2023/03/14 06:53:18;;;;;;;;;;;;;;;11.81;100.00;99635.38;4888567;29;19924;-76
2023/03/14 06:55:46;;;;;;;;;;;;;;;11.81;100.00;99613.44;4879219;29;19927;-74
2023/03/14 06:58:16;;;;;;;;;;;;;;;11.76;100.00;99622.59;4880039;29;19924;-76
2023/03/14 07:00:46;;;;;;;;;;;;;;;11.97;100.00;99616.59;4880552;29;19931;-74
2023/03/14 07:03:22;;;;;;;;;;;;;;;12.20;100.00;99614.69;4895843;29;19935;-75
2023/03/14 07:05:52;;;;;;;;;;;;;;;12.11;100.00;99615.78;4863388;29;19934;-76
2023/03/14 07:08:20;;;;;;;;;;;;;;;11.81;100.00;99595.06;4873648;29;20321;-77
2023/03/14 07:10:48;;;;;;;;;;;;;;;11.79;100.00;99602.00;4861255;29;19924;-76
2023/03/14 07:13:17;;;;;;;;;;;;;;;11.69;100.00;99603.06;4891747;29;19927;-77
2023/03/14 07:15:54;;;;;;;;;;;;;;;12.03;100.00;99593.41;4895879;29;20370;-76
2023/03/14 07:18:22;;;;;;;;;;;;;;;12.15;100.00;99578.34;4896367;29;19937;-77
2023/03/14 07:20:49;;;;;;;;;;;;;;;11.94;100.00;99576.13;4896531;29;19927;-80
2023/03/14 07:23:19;;;;;;;;;;;;;;;12.09;100.00;99581.22;4880116;29;20251;-79
2023/03/14 07:25:50;;;;;;;;;;;;;;;12.15;100.00;99587.41;4880334;29;20379;-78
2023/03/14 07:28:27;;;;;;;;;;;;;;;12.07;100.00;99580.72;4880124;29;19932;-77
2023/03/14 07:31:13;;;;;;;;;;;;;;;12.42;99.97;99587.50;4879773;29;19923;-78
2023/03/14 07:33:41;;;;;;;;;;;;;;;12.27;100.00;99586.78;4895461;29;20601;-78
2023/03/14 07:36:10;;;;;;;;;;;;;;;12.29;100.00;99586.47;4896790;29;19923;-76
2023/03/14 07:38:41;;;;;;;;;;;;;;;12.27;100.00;99588.75;4877119;29;19923;-75
2023/03/14 07:41:32;;;;;;;;;;;;;;;12.12;100.00;99587.22;4867332;29;19927;-76
2023/03/14 07:44:26;;;;;;;;;;;;;;;12.68;100.00;99578.53;4898192;29;20291;-76
2023/03/14 07:47:08;;;;;;;;;;;;;;;12.58;97.67;99593.38;4900261;29;19985;-78
2023/03/14 07:49:38;;;;;;;;;;;;;;;12.45;98.69;99592.34;4901122;29;19931;-77
2023/03/14 07:52:06;;;;;;;;;;;;;;;12.70;98.44;99581.81;4899865;29;19927;-78
2023/03/14 07:54:34;;;;;;;;;;;;;;;12.68;100.00;99584.03;4900945;29;19928;-76
2023/03/14 07:57:03;;;;;;;;;;;;;;;12.73;99.50;99587.47;4899384;29;19931;-77
2023/03/14 07:59:31;;;;;;;;;;;;;;;12.70;98.15;99587.28;4883395;29;19923;-78
2023/03/14 08:01:59;;;;;;;;;;;;;;;12.50;99.07;99573.81;4882754;29;19938;-80
2023/03/14 08:04:27;;;;;;;;;;;;;;;12.70;98.65;99576.31;4899984;29;19931;-77
2023/03/14 08:06:54;;;;;;;;;;;;;;;12.75;97.96;99579.69;4900055;29;20705;-76
2023/03/14 08:09:22;;;;;;;;;;;;;;;12.75;98.73;99567.91;4900026;29;20378;-78
2023/03/14 08:11:50;;;;;;;;;;;;;;;12.31;100.00;99571.31;4899214;29;20291;-79
2023/03/14 08:14:18;;;;;;;;;;;;;;;12.32;100.00;99578.41;4900119;29;20375;-79
2023/03/14 08:16:45;;;;;;;;;;;;;;;12.46;100.00;99577.53;4882111;29;19941;-79
2023/03/14 08:19:13;;;;;;;;;;;;;;;12.55;100.00;99572.03;4899059;29;19943;-80
2023/03/14 08:22:03;;;;;;;;;;;;;;;12.53;100.00;99582.53;4898983;29;20041;-76
2023/03/14 08:24:31;;;;;;;;;;;;;;;12.50;100.00;99578.50;4899688;29;19931;-79
2023/03/14 08:26:59;;;;;;;;;;;;;;;12.32;100.00;99594.09;4898145;29;19923;-78
2023/03/14 08:29:27;;;;;;;;;;;;;;;12.46;100.00;99583.81;4898265;29;19927;-79
2023/03/14 08:31:54;;;;;;;;;;;;;;;12.87;100.00;99575.53;4899057;29;20291;-78
2023/03/14 08:34:22;;;;;;;;;;;;;;;12.81;100.00;99577.59;4882702;29;19963;-78
2023/03/14 08:36:51;;;;;;;;;;;;;;;12.56;100.00;99593.69;4896465;29;19923;-78
2023/03/14 08:39:19;;;;;;;;;;;;;;;12.35;100.00;99569.56;4898754;29;20294;-77
2023/03/14 08:41:46;;;;;;;;;;;;;;;12.56;100.00;99566.25;4898529;29;19935;-78
2023/03/14 08:44:14;;;;;;;;;;;;;;;12.85;100.00;99573.09;4899088;29;19923;-78
2023/03/14 08:46:46;;;;;;;;;;;;;;;12.74;100.00;99574.53;4888816;29;19931;-77
2023/03/14 08:49:14;;;;;;;;;;;;;;;12.84;100.00;99576.97;4898177;29;19934;-76
2023/03/14 08:51:46;;;;;;;;;;;;;;;12.85;100.00;99564.06;4899089;29;20488;-77
2023/03/14 08:54:14;;;;;;;;;;;;;;;12.99;100.00;99574.88;4881529;29;20331;-77
2023/03/14 08:56:42;;;;;;;;;;;;;;;12.70;100.00;99579.84;4898416;29;19931;-81
2023/03/14 08:59:10;;;;;;;;;;;;;;;12.83;100.00;99580.03;4897902;29;19927;-77
2023/03/14 09:01:39;;;;;;;;;;;;;;;12.45;100.00;99570.41;4897484;29;19943;-77
2023/03/14 09:04:07;;;;;;;;;;;;;;;12.58;100.00;99571.41;4881160;29;19923;-77
2023/03/14 09:06:35;;;;;;;;;;;;;;;12.72;100.00;99565.81;4894450;29;19923;-79
2023/03/14 09:09:03;;;;;;;;;;;;;;;12.76;100.00;99564.06;4900246;29;19927;-79
2023/03/14 09:11:31;;;;;;;;;;;;;;;12.50;100.00;99575.75;4897737;29;19923;-82
2023/03/14 09:13:59;;;;;;;;;;;;;;;12.74;100.00;99582.75;4898067;29;19924;-79
2023/03/14 09:16:27;;;;;;;;;;;;;;;12.69;100.00;99589.22;4894712;29;19931;-78
2023/03/14 09:18:57;;;;;;;;;;;;;;;12.65;100.00;99585.47;4898373;29;19924;-81
2023/03/14 09:21:28;;;;;;;;;;;;;;;12.62;100.00;99591.63;4880702;29;19930;-80
2023/03/14 09:23:56;;;;;;;;;;;;;;;12.77;100.00;99593.13;4898059;29;19923;-79
2023/03/14 09:26:24;;;;;;;;;;;;;;;12.73;100.00;99594.88;4898796;29;19927;-80
2023/03/14 09:28:52;;;;;;;;;;;;;;;12.83;100.00;99602.81;4898531;29;19950;-81
2023/03/14 09:31:19;;;;;;;;;;;;;;;12.75;100.00;99595.34;4897980;29;19934;-81
2023/03/14 09:33:47;;;;;;;;;;;;;;;12.66;100.00;99597.28;4898035;29;19927;-81
2023/03/14 09:36:15;;;;;;;;;;;;;;;12.53;100.00;99604.50;4898597;29;19950;-81
2023/03/14 09:38:43;;;;;;;;;;;;;;;12.32;100.00;99597.63;4898265;29;20298;-81
2023/03/14 09:41:17;;;;;;;;;;;;;;;12.34;100.00;99605.53;4895981;29;19923;-81
2023/03/14 09:43:46;;;;;;;;;;;;;;;12.45;100.00;99597.84;4889659;29;20627;-80
2023/03/14 09:46:14;;;;;;;;;;;;;;;12.30;100.00;99588.91;4898503;29;19927;-82
2023/03/14 09:48:43;;;;;;;;;;;;;;;12.15;100.00;99600.28;4880767;29;19934;-82
2023/03/14 09:51:14;;;;;;;;;;;;;;;11.99;100.00;99608.91;4897492;29;19923;-81
2023/03/14 09:53:43;;;;;;;;;;;;;;;12.00;100.00;99605.03;4883400;29;19930;-82
2023/03/14 09:56:17;;;;;;;;;;;;;;;11.83;100.00;99592.81;4897139;29;19927;-82
2023/03/14 09:58:50;;;;;;;;;;;;;;;11.75;100.00;99590.03;4897026;29;19928;-81
2023/03/14 10:01:20;;;;;;;;;;;;;;;12.20;100.00;99598.22;4891886;29;19934;-80
2023/03/14 10:03:48;;;;;;;;;;;;;;;12.39;100.00;99599.94;4897294;29;20298;-83
2023/03/14 10:06:16;;;;;;;;;;;;;;;12.43;100.00;99594.59;4864524;29;19927;-82
2023/03/14 10:08:44;;;;;;;;;;;;;;;12.50;100.00;99605.94;4897045;29;19942;-81
2023/03/14 10:11:16;;;;;;;;;;;;;;;12.63;100.00;99604.22;4896733;29;20283;-80
2023/03/14 10:13:48;;;;;;;;;;;;;;;12.46;100.00;99615.94;4895083;29;20409;-81
2023/03/14 10:16:15;;;;;;;;;;;;;;;12.26;100.00;99617.31;4897195;29;19924;-81
2023/03/14 10:18:46;;;;;;;;;;;;;;;12.25;100.00;99605.50;4896495;29;19931;-81
2023/03/14 10:21:24;;;;;;;;;;;;;;;11.99;100.00;99584.22;4896916;29;20327;-77
2023/03/14 10:23:52;;;;;;;;;;;;;;;11.61;100.00;99581.88;4897712;29;19923;-79
2023/03/14 10:26:25;;;;;;;;;;;;;;;11.67;100.00;99589.66;4897106;29;20294;-79
2023/03/14 10:29:01;;;;;;;;;;;;;;;11.74;100.00;99591.97;4896554;29;19930;-78
2023/03/14 10:31:46;;;;;;;;;;;;;;;12.09;100.00;99580.44;4897343;29;19927;-81
2023/03/14 10:34:22;;;;;;;;;;;;;;;11.76;100.00;99583.41;4890614;29;20287;-81
2023/03/14 10:36:54;;;;;;;;;;;;;;;11.71;100.00;99589.84;4896747;29;19930;-81
2023/03/14 10:39:24;;;;;;;;;;;;;;;11.90;100.00;99583.34;4879934;29;19958;-81
2023/03/14 10:42:12;;;;;;;;;;;;;;;12.08;100.00;99560.41;4878560;29;20363;-81
2023/03/14 10:44:41;;;;;;;;;;;;;;;12.01;100.00;99550.97;4878092;29;19935;-81
2023/03/14 10:47:16;;;;;;;;;;;;;;;12.11;100.00;99544.47;4881914;29;19923;-81
2023/03/14 10:49:43;;;;;;;;;;;;;;;11.90;100.00;99545.78;4897019;29;20294;-80
2023/03/14 10:52:22;;;;;;;;;;;;;;;11.81;100.00;99553.13;4877038;29;19923;-80
2023/03/14 10:55:09;;;;;;;;;;;;;;;11.96;100.00;99549.19;4896576;29;19924;-80
2023/03/14 10:57:41;;;;;;;;;;;;;;;11.99;100.00;99537.59;4899572;29;19923;-80
2023/03/14 11:00:15;;;;;;;;;;;;;;;11.92;100.00;99537.22;4893044;29;19930;-80
2023/03/14 11:02:49;;;;;;;;;;;;;;;11.99;100.00;99537.59;4896009;29;19931;-82
2023/03/14 11:05:27;;;;;;;;;;;;;;;12.26;100.00;99533.06;4896570;29;19924;-83
2023/03/14 11:08:01;;;;;;;;;;;;;;;12.36;100.00;99532.78;4895898;29;19930;-79
2023/03/14 11:10:33;;;;;;;;;;;;;;;12.19;100.00;99549.16;4893146;29;19934;-81
2023/03/14 11:13:07;;;;;;;;;;;;;;;12.18;100.00;99555.78;4896834;29;19951;-82
2023/03/14 11:15:39;;;;;;;;;;;;;;;12.27;100.00;99555.81;4896413;29;19923;-81
2023/03/14 11:18:07;;;;;;;;;;;;;;;11.88;100.00;99558.19;4896485;29;19925;-81
2023/03/14 11:20:59;;;;;;;;;;;;;;;12.05;100.00;99541.03;4895675;29;19927;-81
2023/03/14 11:23:30;;;;;;;;;;;;;;;12.09;100.00;99531.84;4878549;29;20391;-80
2023/03/14 11:25:58;;;;;;;;;;;;;;;12.16;100.00;99528.66;4878152;29;19928;-81
2023/03/14 11:28:40;;;;;;;;;;;;;;;12.11;100.00;99528.00;4876246;29;19927;-82
2023/03/14 11:31:16;;;;;;;;;;;;;;;12.12;100.00;99513.16;4877875;29;19923;-82
2023/03/14 11:33:47;;;;;;;;;;;;;;;12.01;100.00;99501.63;4887305;29;19927;-81
2023/03/14 11:36:20;;;;;;;;;;;;;;;12.06;100.00;99510.56;4896629;29;19923;-81
2023/03/14 11:38:49;;;;;;;;;;;;;;;12.25;100.00;99506.75;4895272;29;19924;-81
2023/03/14 11:41:19;;;;;;;;;;;;;;;12.25;100.00;99515.00;4897007;29;19924;-81
2023/03/14 11:43:48;;;;;;;;;;;;;;;12.27;100.00;99509.97;4897110;29;19962;-81
2023/03/14 11:46:25;;;;;;;;;;;;;;;12.48;100.00;99510.19;4896449;29;19950;-81
2023/03/14 11:49:11;;;;;;;;;;;;;;;12.38;100.00;99515.19;4893175;29;20381;-82
2023/03/14 11:51:41;;;;;;;;;;;;;;;12.43;100.00;99509.56;4895327;29;19927;-81
2023/03/14 11:54:16;;;;;;;;;;;;;;;12.42;100.00;99516.19;4895943;29;19931;-81
2023/03/14 11:56:49;;;;;;;;;;;;;;;12.32;100.00;99503.56;4896547;29;20299;-78
2023/03/14 11:59:30;;;;;;;;;;;;;;;12.69;100.00;99497.81;4895713;29;20310;-80
2023/03/14 12:02:00;;;;;;;;;;;;;;;12.84;100.00;99483.63;4894346;29;19934;-80
2023/03/14 12:04:28;;;;;;;;;;;;;;;12.62;100.00;99482.63;4895574;29;20366;-80
2023/03/14 12:06:56;;;;;;;;;;;;;;;12.83;100.00;99475.72;4896367;29;19924;-80
2023/03/14 12:09:26;;;;;;;;;;;;;;;12.64;100.00;99471.34;4894718;29;19923;-80
2023/03/14 12:11:59;;;;;;;;;;;;;;;12.55;100.00;99474.06;4894936;29;19994;-80
2023/03/14 12:14:34;;;;;;;;;;;;;;;12.94;100.00;99476.22;4896106;29;19923;-80
2023/03/14 12:17:08;;;;;;;;;;;;;;;12.94;100.00;99487.19;4895807;29;19938;-83
2023/03/14 12:19:41;;;;;;;;;;;;;;;13.05;100.00;99477.47;4895135;29;19927;-81
2023/03/14 12:22:27;;;;;;;;;;;;;;;13.29;100.00;99478.91;4895032;29;19957;-80
2023/03/14 12:25:24;;;;;;;;;;;;;;;12.76;100.00;99457.78;4895844;29;19928;-82
2023/03/14 12:27:55;;;;;;;;;;;;;;;12.41;100.00;99449.50;4880587;29;19942;-80
2023/03/14 12:30:24;;;;;;;;;;;;;;;12.48;100.00;99449.84;4897724;29;20405;-81
2023/03/14 12:33:07;;;;;;;;;;;;;;;12.30;100.00;99439.97;4897163;29;20422;-79
2023/03/14 12:35:42;;;;;;;;;;;;;;;12.30;100.00;99434.47;4886526;29;19923;-78
2023/03/14 12:38:25;;;;;;;;;;;;;;;12.78;100.00;99427.28;4899271;29;20286;-82
2023/03/14 12:40:56;;;;;;;;;;;;;;;13.20;100.00;99431.44;4899407;29;20371;-81
2023/03/14 12:43:26;;;;;;;;;;;;;;;13.31;100.00;99438.19;4898963;29;19950;-81
2023/03/14 12:46:05;;;;;;;;;;;;;;;13.39;100.00;99431.06;4899445;29;19923;-81
2023/03/14 12:48:33;;;;;;;;;;;;;;;13.16;100.00;99417.53;4899518;29;19930;-81
2023/03/14 12:51:00;;;;;;;;;;;;;;;13.14;100.00;99419.78;4899560;29;19946;-81
2023/03/14 12:53:43;;;;;;;;;;;;;;;13.47;100.00;99408.28;4898762;29;19935;-81
2023/03/14 12:56:28;;;;;;;;;;;;;;;13.51;100.00;99413.91;4899463;29;19946;-82
2023/03/14 12:58:59;;;;;;;;;;;;;;;13.60;100.00;99420.22;4882612;29;19923;-82
2023/03/14 13:01:27;;;;;;;;;;;;;;;13.95;100.00;99420.06;4898201;29;20306;-81
2023/03/14 13:03:56;;;;;;;;;;;;;;;14.33;100.00;99409.31;4897920;29;19939;-82
2023/03/14 13:06:43;;;;;;;;;;;;;;;14.51;100.00;99402.53;4897765;29;19934;-82